Time;durP1;ratioP1;P1;durP2;ratioP2;P2;SDS_P1;SDS_P2;PMS_P1;PMS_P2;Temp;Humidity;BMP_temperature;BMP_pressure;BME280_temperature;BME280_humidity;BME280_pressure;Samples;Min_cycle;Max_cycle;Signal;HPM_P1;HPM_P2
2022/07/20 00:01:52;;;;;;;1999.90;999.90;;;22.90;59.60;;;;;;5111182;27;20043;-77
2022/07/20 00:04:17;;;;;;;1999.90;999.90;;;22.90;60.10;;;;;;5085879;28;20415;-77
2022/07/20 00:06:44;;;;;;;1999.90;999.90;;;22.80;60.00;;;;;;5089010;27;20186;-77
2022/07/20 00:11:54;;;;;;;1999.90;999.90;;;22.60;60.20;;;;;;5104694;27;20043;-77
2022/07/20 00:14:19;;;;;;;1999.90;999.90;;;22.60;60.20;;;;;;5094783;27;20050;-76
2022/07/20 00:16:45;;;;;;;1999.90;999.90;;;22.60;60.40;;;;;;5111179;27;20042;-77
2022/07/20 00:19:10;;;;;;;1999.90;999.90;;;22.50;60.50;;;;;;5087768;28;20039;-77
2022/07/20 00:21:36;;;;;;;1999.90;999.90;;;22.50;61.00;;;;;;5097863;28;20054;-76
2022/07/20 00:24:02;;;;;;;1999.90;999.90;;;22.50;60.20;;;;;;5091981;27;20031;-76
2022/07/20 00:26:28;;;;;;;1999.90;999.90;;;22.50;60.50;;;;;;5098289;28;20043;-77
2022/07/20 00:28:54;;;;;;;1999.90;999.90;;;22.50;60.30;;;;;;5107449;27;20040;-77
2022/07/20 00:31:21;;;;;;;1999.90;999.90;;;22.40;60.40;;;;;;5093438;27;20164;-78
2022/07/20 00:33:48;;;;;;;1999.90;999.90;;;22.40;60.60;;;;;;5106602;27;20149;-77
2022/07/20 00:36:15;;;;;;;1999.90;999.90;;;22.40;60.60;;;;;;5101344;27;20414;-77
2022/07/20 00:38:40;;;;;;;1999.90;999.90;;;22.40;60.60;;;;;;5115739;27;20052;-77
2022/07/20 00:41:06;;;;;;;1999.90;999.90;;;22.30;60.50;;;;;;5107664;27;20066;-77
2022/07/20 00:44:02;;;;;;;1999.90;999.90;;;22.30;60.60;;;;;;5109741;27;20031;-77
2022/07/20 00:46:31;;;;;;;1999.90;999.90;;;22.30;60.70;;;;;;5110319;27;20565;-77
2022/07/20 00:48:57;;;;;;;1999.90;999.90;;;22.20;60.70;;;;;;5099006;27;20034;-77
2022/07/20 00:51:23;;;;;;;1999.90;999.90;;;22.20;60.90;;;;;;5114970;27;20401;-77
2022/07/20 00:53:51;;;;;;;1999.90;999.90;;;22.20;60.60;;;;;;5094801;27;20449;-77
2022/07/20 00:56:17;;;;;;;1999.90;999.90;;;22.20;60.70;;;;;;5116319;27;20508;-77
2022/07/20 00:58:43;;;;;;;1999.90;999.90;;;22.10;60.70;;;;;;5109493;27;20388;-77
2022/07/20 01:01:09;;;;;;;1999.90;999.90;;;22.10;60.70;;;;;;5095090;27;20108;-77
2022/07/20 01:03:36;;;;;;;1999.90;999.90;;;22.00;61.00;;;;;;5089304;27;20040;-77
2022/07/20 01:06:02;;;;;;;1999.90;999.90;;;22.00;61.10;;;;;;5112082;27;20043;-77
2022/07/20 01:08:28;;;;;;;1999.90;999.90;;;21.90;60.90;;;;;;5096214;27;20490;-77
2022/07/20 01:10:56;;;;;;;1999.90;999.90;;;21.80;61.20;;;;;;5096905;27;20118;-78
2022/07/20 01:13:22;;;;;;;1999.90;999.90;;;21.80;61.10;;;;;;5090954;27;20088;-78
2022/07/20 01:15:47;;;;;;;1999.90;999.90;;;21.70;61.20;;;;;;5114267;27;20039;-77
2022/07/20 01:18:13;;;;;;;1999.90;999.90;;;21.70;61.50;;;;;;5108909;27;20475;-76
2022/07/20 01:20:45;;;;;;;1999.90;999.90;;;21.60;61.50;;;;;;5093009;28;20457;-77
2022/07/20 01:23:11;;;;;;;1999.90;999.90;;;21.50;61.50;;;;;;5095999;27;20077;-76
2022/07/20 01:25:37;;;;;;;1999.90;999.90;;;21.50;61.60;;;;;;5111924;27;20092;-76
2022/07/20 01:28:07;;;;;;;1999.90;999.90;;;21.40;61.70;;;;;;5118582;27;20487;-76
2022/07/20 01:30:33;;;;;;;1999.90;999.90;;;21.40;61.70;;;;;;5110812;27;20038;-76
2022/07/20 01:32:59;;;;;;;1999.90;999.90;;;21.30;62.30;;;;;;5132551;27;20051;-76
2022/07/20 01:35:24;;;;;;;1999.90;999.90;;;21.30;62.20;;;;;;5127206;27;20047;-76
2022/07/20 01:37:50;;;;;;;1999.90;999.90;;;21.20;62.20;;;;;;5129645;27;20035;-75
2022/07/20 01:40:15;;;;;;;1999.90;999.90;;;21.20;62.00;;;;;;5131077;27;20054;-76
2022/07/20 01:42:41;;;;;;;1999.90;999.90;;;21.20;62.20;;;;;;5118244;27;20035;-75
2022/07/20 01:45:07;;;;;;;1999.90;999.90;;;21.10;62.60;;;;;;5121660;27;20070;-76
2022/07/20 01:47:33;;;;;;;1999.90;999.90;;;21.10;62.70;;;;;;5127416;27;20505;-75
2022/07/20 01:49:58;;;;;;;1999.90;999.90;;;21.00;62.70;;;;;;5093825;27;20043;-76
2022/07/20 01:52:24;;;;;;;1999.90;999.90;;;21.00;62.70;;;;;;5093480;28;20579;-76
2022/07/20 01:54:50;;;;;;;1999.90;999.90;;;20.90;62.80;;;;;;5108378;27;20039;-76
2022/07/20 01:57:15;;;;;;;1999.90;999.90;;;20.90;62.90;;;;;;5110125;27;20035;-76
2022/07/20 01:59:41;;;;;;;1999.90;999.90;;;20.90;62.90;;;;;;5110210;27;20039;-76
2022/07/20 02:02:06;;;;;;;1999.90;999.90;;;20.90;63.70;;;;;;5094677;27;20060;-75
2022/07/20 02:04:32;;;;;;;1999.90;999.90;;;20.90;63.70;;;;;;5085899;27;20544;-76
2022/07/20 02:06:58;;;;;;;1999.90;999.90;;;20.90;63.40;;;;;;5109977;27;20035;-77
2022/07/20 02:09:23;;;;;;;1999.90;999.90;;;20.80;63.50;;;;;;5109233;27;20035;-75
2022/07/20 02:11:49;;;;;;;1999.90;999.90;;;20.80;63.80;;;;;;5109331;27;20482;-76
2022/07/20 02:14:15;;;;;;;1999.90;999.90;;;20.80;64.00;;;;;;5104413;27;20835;-76
2022/07/20 02:16:41;;;;;;;1999.90;999.90;;;20.70;64.00;;;;;;5093161;27;20042;-76
2022/07/20 02:19:06;;;;;;;1999.90;999.90;;;20.70;64.10;;;;;;5093684;27;20039;-76
2022/07/20 02:21:32;;;;;;;1999.90;999.90;;;20.70;63.80;;;;;;5104855;28;20433;-76
2022/07/20 02:23:58;;;;;;;1999.90;999.90;;;20.60;64.30;;;;;;5089989;28;20141;-76
2022/07/20 02:26:24;;;;;;;1999.90;999.90;;;20.60;64.60;;;;;;5122858;28;20067;-76
2022/07/20 02:28:49;;;;;;;1999.90;999.90;;;20.60;64.60;;;;;;5091142;28;20031;-76
2022/07/20 02:31:15;;;;;;;1999.90;999.90;;;20.60;64.60;;;;;;5090491;27;20475;-76
2022/07/20 02:33:41;;;;;;;1999.90;999.90;;;20.60;64.50;;;;;;5118771;28;20043;-76
2022/07/20 02:36:07;;;;;;;1999.90;999.90;;;20.60;64.40;;;;;;5093551;28;20533;-76
2022/07/20 02:38:33;;;;;;;1999.90;999.90;;;20.60;64.50;;;;;;5089471;28;20063;-75
2022/07/20 02:40:58;;;;;;;1999.90;999.90;;;20.60;64.80;;;;;;5082828;28;20120;-75
2022/07/20 02:43:24;;;;;;;1999.90;999.90;;;20.60;64.50;;;;;;5088965;27;20042;-76
2022/07/20 02:45:50;;;;;;;1999.90;999.90;;;20.60;64.90;;;;;;5090333;28;20408;-76
2022/07/20 02:48:15;;;;;;;1999.90;999.90;;;20.60;64.90;;;;;;5106414;28;20042;-76
2022/07/20 02:50:42;;;;;;;1999.90;999.90;;;20.60;64.80;;;;;;5089741;28;20096;-76
2022/07/20 02:53:09;;;;;;;1999.90;999.90;;;20.60;64.50;;;;;;5100620;28;20042;-76
2022/07/20 02:55:35;;;;;;;1999.90;999.90;;;20.60;64.80;;;;;;5092050;28;20046;-76
2022/07/20 02:58:01;;;;;;;1999.90;999.90;;;20.60;64.90;;;;;;5094479;28;20047;-76
2022/07/20 03:00:27;;;;;;;1999.90;999.90;;;20.60;64.90;;;;;;5097850;28;20138;-76
2022/07/20 03:02:53;;;;;;;1999.90;999.90;;;20.60;64.80;;;;;;5105854;28;20495;-76
2022/07/20 03:05:19;;;;;;;1999.90;999.90;;;20.60;64.90;;;;;;5093854;28;20429;-77
2022/07/20 03:07:45;;;;;;;1999.90;999.90;;;20.60;65.20;;;;;;5091778;27;20103;-76
2022/07/20 03:10:11;;;;;;;1999.90;999.90;;;20.60;64.90;;;;;;5087525;28;20043;-77
2022/07/20 03:12:37;;;;;;;1999.90;999.90;;;20.60;64.90;;;;;;5110133;28;20071;-76
2022/07/20 03:15:04;;;;;;;1999.90;999.90;;;20.50;65.60;;;;;;5102852;28;20063;-76
2022/07/20 03:17:30;;;;;;;1999.90;999.90;;;20.50;65.40;;;;;;5098346;28;20327;-76
2022/07/20 03:19:56;;;;;;;1999.90;999.90;;;20.40;65.20;;;;;;5099867;28;20118;-76
2022/07/20 03:22:21;;;;;;;1999.90;999.90;;;20.40;65.70;;;;;;5092877;28;20043;-76
2022/07/20 03:24:47;;;;;;;1999.90;999.90;;;20.40;65.50;;;;;;5123370;27;20032;-76
2022/07/20 03:27:13;;;;;;;1999.90;999.90;;;20.40;65.70;;;;;;5096146;27;20125;-75
2022/07/20 03:29:38;;;;;;;1999.90;999.90;;;20.40;65.80;;;;;;5113097;27;20045;-76
2022/07/20 03:32:04;;;;;;;1999.90;999.90;;;20.40;65.50;;;;;;5097681;28;20032;-76
2022/07/20 03:34:30;;;;;;;1999.90;999.90;;;20.30;65.60;;;;;;5105064;27;20388;-76
2022/07/20 03:36:56;;;;;;;1999.90;999.90;;;20.40;65.90;;;;;;5115378;27;20051;-76
2022/07/20 03:39:22;;;;;;;1999.90;999.90;;;20.30;65.70;;;;;;5094317;27;20059;-76
2022/07/20 03:41:47;;;;;;;1999.90;999.90;;;20.30;65.90;;;;;;5084138;27;20035;-76
2022/07/20 03:44:13;;;;;;;1999.90;999.90;;;20.30;65.80;;;;;;5111465;27;20570;-76
2022/07/20 03:46:39;;;;;;;1999.90;999.90;;;20.30;66.10;;;;;;5091636;28;20478;-76
2022/07/20 03:49:04;;;;;;;1999.90;999.90;;;20.20;66.70;;;;;;5098371;27;20505;-76
2022/07/20 03:51:30;;;;;;;1999.90;999.90;;;20.20;66.50;;;;;;5114731;27;20095;-78
2022/07/20 03:53:56;;;;;;;1999.90;999.90;;;20.20;67.20;;;;;;5102029;27;20118;-77
2022/07/20 03:56:21;;;;;;;1999.90;999.90;;;20.20;66.80;;;;;;5111091;27;20454;-77
2022/07/20 03:58:47;;;;;;;1999.90;999.90;;;20.20;66.60;;;;;;5108266;27;20406;-77
2022/07/20 04:01:13;;;;;;;1999.90;999.90;;;20.30;66.60;;;;;;5095556;27;20406;-77
2022/07/20 04:03:39;;;;;;;1999.90;999.90;;;20.30;66.60;;;;;;5112983;27;20032;-78
2022/07/20 04:06:04;;;;;;;1999.90;999.90;;;20.40;66.60;;;;;;5107627;27;20039;-77
2022/07/20 04:08:30;;;;;;;1999.90;999.90;;;20.40;66.80;;;;;;5089433;27;20039;-77
2022/07/20 04:10:56;;;;;;;1999.90;999.90;;;20.40;66.80;;;;;;5093445;27;20038;-77
2022/07/20 04:13:21;;;;;;;1999.90;999.90;;;20.40;67.00;;;;;;5112993;27;20047;-77
2022/07/20 04:15:47;;;;;;;1999.90;999.90;;;20.40;66.70;;;;;;5105762;27;20067;-77
2022/07/20 04:18:15;;;;;;;1999.90;999.90;;;20.40;67.00;;;;;;5120672;27;20133;-77
2022/07/20 04:20:41;;;;;;;1999.90;999.90;;;20.40;66.70;;;;;;5093518;27;20092;-77
2022/07/20 04:23:07;;;;;;;1999.90;999.90;;;20.40;67.00;;;;;;5103937;27;20050;-77
2022/07/20 04:25:33;;;;;;;1999.90;999.90;;;20.50;67.60;;;;;;5122819;27;20092;-77
2022/07/20 04:27:58;;;;;;;1999.90;999.90;;;20.70;67.50;;;;;;5097477;27;20138;-77
2022/07/20 04:30:24;;;;;;;1999.90;999.90;;;20.90;67.30;;;;;;5091845;28;20113;-77
2022/07/20 04:32:50;;;;;;;1999.90;999.90;;;20.90;67.50;;;;;;5111424;27;20043;-78
2022/07/20 04:35:15;;;;;;;1999.90;999.90;;;20.90;66.80;;;;;;5093190;28;20134;-78
2022/07/20 04:37:41;;;;;;;1999.90;999.90;;;20.80;67.70;;;;;;5101661;27;20044;-77
2022/07/20 04:40:08;;;;;;;1999.90;999.90;;;20.70;67.60;;;;;;5102098;27;20071;-78
2022/07/20 04:42:34;;;;;;;1999.90;999.90;;;20.70;67.70;;;;;;5094395;27;20046;-78
2022/07/20 04:44:59;;;;;;;1999.90;999.90;;;20.70;68.40;;;;;;5094168;27;20050;-78
2022/07/20 04:47:25;;;;;;;1999.90;999.90;;;20.70;68.10;;;;;;5097458;27;20038;-77
2022/07/20 04:49:51;;;;;;;1999.90;999.90;;;20.70;68.40;;;;;;5111861;27;20031;-78
2022/07/20 04:52:16;;;;;;;1999.90;999.90;;;20.70;69.20;;;;;;5095863;27;20034;-77
2022/07/20 04:54:42;;;;;;;1999.90;999.90;;;20.80;68.30;;;;;;5101040;28;20426;-78
2022/07/20 04:57:08;;;;;;;1999.90;999.90;;;20.90;68.70;;;;;;5102493;27;20046;-78
2022/07/20 04:59:34;;;;;;;1999.90;999.90;;;20.90;68.30;;;;;;5113397;27;20043;-77
2022/07/20 05:02:00;;;;;;;1999.90;999.90;;;21.00;69.00;;;;;;5111557;27;20561;-77
2022/07/20 05:04:25;;;;;;;1999.90;999.90;;;21.00;68.80;;;;;;5115515;27;20083;-78
2022/07/20 05:06:51;;;;;;;1999.90;999.90;;;21.10;69.10;;;;;;5113477;27;20077;-77
2022/07/20 05:09:16;;;;;;;1999.90;999.90;;;21.20;68.60;;;;;;5092539;27;20067;-78
2022/07/20 05:11:42;;;;;;;1999.90;999.90;;;21.30;68.50;;;;;;5102822;27;20043;-78
2022/07/20 05:14:08;;;;;;;1999.90;999.90;;;21.40;68.50;;;;;;5112432;27;20103;-77
2022/07/20 05:16:34;;;;;;;1999.90;999.90;;;21.40;69.90;;;;;;5111827;27;20031;-78
2022/07/20 05:19:00;;;;;;;1999.90;999.90;;;21.50;69.10;;;;;;5091006;28;20543;-78
2022/07/20 05:21:26;;;;;;;1999.90;999.90;;;21.60;69.70;;;;;;5098354;28;20044;-78
2022/07/20 05:23:52;;;;;;;1999.90;999.90;;;21.70;69.60;;;;;;5116609;27;20496;-77
2022/07/20 05:26:17;;;;;;;1999.90;999.90;;;21.80;69.50;;;;;;5112531;27;20041;-77
2022/07/20 05:28:43;;;;;;;1999.90;999.90;;;21.90;69.20;;;;;;5099723;28;20462;-76
2022/07/20 05:31:09;;;;;;;1999.90;999.90;;;22.00;68.10;;;;;;5105289;27;20083;-76
2022/07/20 05:33:36;;;;;;;1999.90;999.90;;;22.20;68.40;;;;;;5102474;27;20035;-76
2022/07/20 05:36:03;;;;;;;1999.90;999.90;;;22.40;67.90;;;;;;5094073;27;20035;-77
2022/07/20 05:38:30;;;;;;;1999.90;999.90;;;22.50;67.20;;;;;;5113885;27;20069;-77
2022/07/20 05:40:55;;;;;;;1999.90;999.90;;;22.70;67.00;;;;;;5111810;27;20054;-78
2022/07/20 05:43:22;;;;;;;1999.90;999.90;;;22.80;67.20;;;;;;5117024;27;20042;-78
2022/07/20 05:45:48;;;;;;;1999.90;999.90;;;23.00;66.60;;;;;;5108528;27;20079;-78
2022/07/20 05:48:14;;;;;;;1999.90;999.90;;;23.20;66.60;;;;;;5103178;27;20035;-76
2022/07/20 05:50:41;;;;;;;1999.90;999.90;;;23.40;66.10;;;;;;5107789;27;20035;-77
2022/07/20 05:53:08;;;;;;;1999.90;999.90;;;23.50;65.50;;;;;;5080848;27;20048;-77
2022/07/20 05:55:35;;;;;;;1999.90;999.90;;;23.70;65.60;;;;;;5094878;27;20126;-77
2022/07/20 05:58:03;;;;;;;1999.90;999.90;;;23.80;65.70;;;;;;5094426;27;20084;-77
2022/07/20 06:00:29;;;;;;;1999.90;999.90;;;23.90;65.80;;;;;;5112570;27;20077;-76
2022/07/20 06:02:54;;;;;;;1999.90;999.90;;;24.00;65.30;;;;;;5115565;27;20502;-77
2022/07/20 06:05:20;;;;;;;1999.90;999.90;;;24.20;65.20;;;;;;5093806;27;20035;-77
2022/07/20 06:07:46;;;;;;;1999.90;999.90;;;24.40;64.90;;;;;;5109826;27;20043;-77
2022/07/20 06:10:12;;;;;;;1999.90;999.90;;;24.90;64.40;;;;;;5094335;27;20043;-78
2022/07/20 06:12:37;;;;;;;1999.90;999.90;;;26.00;63.80;;;;;;5085815;27;20039;-77
2022/07/20 06:15:04;;;;;;;1999.90;999.90;;;27.20;61.80;;;;;;5111933;27;20387;-77
2022/07/20 06:17:37;;;;;;;1999.90;999.90;;;28.10;59.40;;;;;;5094142;27;20444;-78
2022/07/20 06:20:05;;;;;;;1999.90;999.90;;;28.80;57.90;;;;;;5095659;27;20171;-77
2022/07/20 06:22:32;;;;;;;1999.90;999.90;;;29.20;53.90;;;;;;5094941;27;20114;-77
2022/07/20 06:24:57;;;;;;;1999.90;999.90;;;29.30;54.50;;;;;;5107418;28;20039;-78
2022/07/20 06:27:23;;;;;;;1999.90;999.90;;;29.60;54.40;;;;;;5110860;28;20042;-77
2022/07/20 06:29:49;;;;;;;1999.90;999.90;;;30.00;54.00;;;;;;5104060;28;20511;-77
2022/07/20 06:32:14;;;;;;;1999.90;999.90;;;30.20;53.10;;;;;;5112202;28;20130;-77
2022/07/20 06:34:40;;;;;;;1999.90;999.90;;;30.40;53.50;;;;;;5098501;27;20047;-76
2022/07/20 06:37:05;;;;;;;1999.90;999.90;;;30.50;52.70;;;;;;5118028;27;20042;-77
2022/07/20 06:39:31;;;;;;;1999.90;999.90;;;30.60;52.30;;;;;;5093776;27;20047;-77
2022/07/20 06:41:57;;;;;;;1999.90;999.90;;;31.00;53.10;;;;;;5096948;27;20050;-78
2022/07/20 06:44:22;;;;;;;1999.90;999.90;;;31.30;51.80;;;;;;5101889;27;20039;-77
2022/07/20 06:46:48;;;;;;;1999.90;999.90;;;31.50;52.20;;;;;;5110200;27;20043;-77
2022/07/20 06:49:14;;;;;;;1999.90;999.90;;;31.60;52.40;;;;;;5101059;28;20043;-77
2022/07/20 06:51:40;;;;;;;1999.90;999.90;;;31.70;51.40;;;;;;5100022;28;20051;-77
2022/07/20 06:54:06;;;;;;;1999.90;999.90;;;31.80;52.20;;;;;;5091924;28;20046;-77
2022/07/20 06:56:32;;;;;;;1999.90;999.90;;;32.00;52.10;;;;;;5116295;28;20581;-78
2022/07/20 06:58:57;;;;;;;1999.90;999.90;;;32.20;52.10;;;;;;5097738;27;20035;-78
2022/07/20 07:01:23;;;;;;;1999.90;999.90;;;32.40;51.60;;;;;;5108154;27;20042;-79
2022/07/20 07:03:49;;;;;;;1999.90;999.90;;;32.40;50.70;;;;;;5097609;27;20039;-78
2022/07/20 07:06:14;;;;;;;1999.90;999.90;;;32.20;49.50;;;;;;5098493;27;20070;-78
2022/07/20 07:08:40;;;;;;;1999.90;999.90;;;32.00;50.10;;;;;;5093262;27;20043;-78
2022/07/20 07:11:06;;;;;;;1999.90;999.90;;;32.10;51.20;;;;;;5108996;27;20077;-78
2022/07/20 07:13:32;;;;;;;1999.90;999.90;;;32.30;51.20;;;;;;5095158;27;20050;-78
2022/07/20 07:15:57;;;;;;;1999.90;999.90;;;32.40;51.50;;;;;;5124234;27;20103;-77
2022/07/20 07:18:23;;;;;;;1999.90;999.90;;;32.40;50.80;;;;;;5097287;27;20036;-78
2022/07/20 07:20:49;;;;;;;1999.90;999.90;;;32.00;51.20;;;;;;5092031;27;20035;-78
2022/07/20 07:23:15;;;;;;;1999.90;999.90;;;32.00;51.90;;;;;;5096783;27;20103;-78
2022/07/20 07:25:41;;;;;;;1999.90;999.90;;;31.90;52.80;;;;;;5094806;27;20065;-78
2022/07/20 07:28:06;;;;;;;1999.90;999.90;;;32.10;52.90;;;;;;5115699;27;20031;-78
2022/07/20 07:30:33;;;;;;;1999.90;999.90;;;32.00;52.90;;;;;;5097217;27;20426;-78
2022/07/20 07:32:58;;;;;;;1999.90;999.90;;;32.30;53.30;;;;;;5114913;27;20086;-78
2022/07/20 07:35:24;;;;;;;1999.90;999.90;;;32.50;52.90;;;;;;5098333;27;20510;-78
2022/07/20 07:37:50;;;;;;;1999.90;999.90;;;32.70;52.90;;;;;;5097443;27;20038;-78
2022/07/20 07:40:15;;;;;;;1999.90;999.90;;;32.70;52.80;;;;;;5089018;27;20422;-78
2022/07/20 07:42:41;;;;;;;1999.90;999.90;;;32.70;53.10;;;;;;5086237;27;20038;-78
2022/07/20 07:45:08;;;;;;;1999.90;999.90;;;32.80;53.60;;;;;;5102716;28;20043;-78
2022/07/20 07:47:34;;;;;;;1999.90;999.90;;;32.70;53.80;;;;;;5095066;28;20557;-78
2022/07/20 07:50:00;;;;;;;1999.90;999.90;;;32.50;54.70;;;;;;5122169;27;20038;-78
2022/07/20 07:52:26;;;;;;;1999.90;999.90;;;32.20;54.90;;;;;;5096706;27;20394;-79
2022/07/20 07:54:51;;;;;;;1999.90;999.90;;;31.60;56.40;;;;;;5099912;27;20067;-78
2022/07/20 07:57:17;;;;;;;1999.90;999.90;;;31.40;57.70;;;;;;5105851;27;20065;-78
2022/07/20 07:59:42;;;;;;;1999.90;999.90;;;31.50;57.20;;;;;;5107256;27;20039;-78
2022/07/20 08:02:09;;;;;;;1999.90;999.90;;;31.10;57.70;;;;;;5096142;27;20518;-79
2022/07/20 08:04:34;;;;;;;1999.90;999.90;;;30.90;59.00;;;;;;5120520;27;20543;-79
2022/07/20 08:07:00;;;;;;;1999.90;999.90;;;31.10;58.90;;;;;;5119713;27;20039;-78
2022/07/20 08:09:26;;;;;;;1999.90;999.90;;;30.90;59.20;;;;;;5121117;27;20030;-78
2022/07/20 08:11:52;;;;;;;1999.90;999.90;;;30.70;59.80;;;;;;5114788;27;20490;-77
2022/07/20 08:14:17;;;;;;;1999.90;999.90;;;30.80;60.00;;;;;;5114489;27;20039;-78
2022/07/20 08:16:43;;;;;;;1999.90;999.90;;;30.50;62.50;;;;;;5095539;27;20039;-78
2022/07/20 08:19:09;;;;;;;1999.90;999.90;;;30.20;61.20;;;;;;5094027;27;20050;-78
2022/07/20 08:21:35;;;;;;;1999.90;999.90;;;29.90;62.70;;;;;;5097145;27;20522;-78
2022/07/20 08:24:02;;;;;;;1999.90;999.90;;;29.60;62.70;;;;;;5115275;27;20031;-79
2022/07/20 08:26:28;;;;;;;1999.90;999.90;;;29.40;63.60;;;;;;5124522;27;20418;-78
2022/07/20 08:28:54;;;;;;;1999.90;999.90;;;29.50;64.50;;;;;;5120552;27;20369;-78
2022/07/20 08:31:19;;;;;;;1999.90;999.90;;;29.70;64.50;;;;;;5113572;27;20043;-79
2022/07/20 08:33:45;;;;;;;1999.90;999.90;;;30.00;64.00;;;;;;5117893;27;20050;-79
2022/07/20 08:36:10;;;;;;;1999.90;999.90;;;30.40;64.40;;;;;;5117807;27;20043;-78
2022/07/20 08:38:36;;;;;;;1999.90;999.90;;;30.60;63.80;;;;;;5094205;27;20093;-79
2022/07/20 08:41:02;;;;;;;1999.90;999.90;;;30.70;64.40;;;;;;5105118;27;20044;-79
2022/07/20 08:43:29;;;;;;;1999.90;999.90;;;30.80;63.70;;;;;;5097212;27;20043;-79
2022/07/20 08:45:55;;;;;;;1999.90;999.90;;;30.90;63.30;;;;;;5096784;27;20043;-79
2022/07/20 08:48:22;;;;;;;1999.90;999.90;;;31.00;63.70;;;;;;5118079;27;20118;-79
2022/07/20 08:50:48;;;;;;;1999.90;999.90;;;31.10;64.20;;;;;;5094012;27;20038;-78
2022/07/20 08:53:14;;;;;;;1999.90;999.90;;;31.30;64.80;;;;;;5096830;27;20122;-77
2022/07/20 08:55:40;;;;;;;1999.90;999.90;;;31.50;63.70;;;;;;5095654;27;20031;-76
2022/07/20 08:58:05;;;;;;;1999.90;999.90;;;31.50;63.30;;;;;;5112379;27;20073;-78
2022/07/20 09:00:31;;;;;;;1999.90;999.90;;;31.40;63.90;;;;;;5113102;27;20047;-77
2022/07/20 09:03:02;;;;;;;1999.90;999.90;;;31.50;64.10;;;;;;5092567;28;20126;-78
2022/07/20 09:05:31;;;;;;;1999.90;999.90;;;31.70;64.10;;;;;;5109246;27;20039;-77
2022/07/20 09:07:58;;;;;;;1999.90;999.90;;;31.90;64.00;;;;;;5099804;27;20164;-78
2022/07/20 09:10:30;;;;;;;1999.90;999.90;;;32.00;63.70;;;;;;5091402;27;20398;-77
2022/07/20 09:12:58;;;;;;;;;;;31.90;62.50;;;;;;5094657;27;20103;-79
2022/07/20 09:15:30;;;;;;;1999.90;999.90;;;31.70;63.00;;;;;;5113818;27;20299;-80
2022/07/20 09:18:17;;;;;;;1999.90;999.90;;;31.60;63.40;;;;;;5111204;27;20039;-75
2022/07/20 09:20:53;;;;;;;1999.90;999.90;;;31.30;63.60;;;;;;5092451;27;20043;-76
2022/07/20 09:23:22;;;;;;;1999.90;999.90;;;31.10;64.90;;;;;;5093202;27;20046;-77
2022/07/20 09:26:00;;;;;;;1999.90;999.90;;;31.00;64.60;;;;;;5093405;27;20540;-79
2022/07/20 09:28:41;;;;;;;1999.90;999.90;;;31.00;64.90;;;;;;5106702;27;20038;-77
2022/07/20 09:31:33;;;;;;;1999.90;999.90;;;30.90;64.60;;;;;;5093563;27;20050;-78
2022/07/20 09:34:13;;;;;;;1999.90;999.90;;;31.00;64.60;;;;;;5100098;27;20503;-77
2022/07/20 09:36:41;;;;;;;1999.90;999.90;;;31.00;64.70;;;;;;5115081;27;20049;-78
2022/07/20 09:39:12;;;;;;;1999.90;999.90;;;31.00;64.80;;;;;;5107763;27;20059;-79
2022/07/20 09:41:39;;;;;;;1999.90;999.90;;;31.20;65.20;;;;;;5109376;27;20256;-78
2022/07/20 09:44:06;;;;;;;1999.90;999.90;;;31.30;64.80;;;;;;5092315;27;20038;-79
2022/07/20 09:46:37;;;;;;;1999.90;999.90;;;31.30;64.70;;;;;;5093795;27;20399;-78
2022/07/20 09:49:07;;;;;;;1999.90;999.90;;;31.30;63.90;;;;;;5092328;27;20515;-79
2022/07/20 09:51:38;;;;;;;1999.90;999.90;;;31.30;64.70;;;;;;5110551;27;20039;-79
2022/07/20 09:54:09;;;;;;;1999.90;999.90;;;31.20;64.50;;;;;;5106272;27;20522;-78
2022/07/20 09:56:44;;;;;;;1999.90;999.90;;;31.20;62.80;;;;;;5100088;27;20469;-78
2022/07/20 09:59:11;;;;;;;1999.90;999.90;;;31.20;61.70;;;;;;5096963;27;20091;-78
2022/07/20 10:01:39;;;;;;;1999.90;999.90;;;31.30;62.50;;;;;;5126892;27;20042;-78
2022/07/20 10:04:09;;;;;;;1999.90;999.90;;;31.40;62.20;;;;;;5119531;27;20533;-77
2022/07/20 10:06:37;;;;;;;1999.90;999.90;;;31.40;60.20;;;;;;5100866;27;20490;-77
2022/07/20 10:09:04;;;;;;;1999.90;999.90;;;31.30;60.30;;;;;;5094382;27;20379;-77
2022/07/20 10:11:31;;;;;;;1999.90;999.90;;;31.20;58.80;;;;;;5092200;27;20521;-77
2022/07/20 10:13:59;;;;;;;1999.90;999.90;;;31.20;60.50;;;;;;5093772;27;20495;-78
2022/07/20 10:16:37;;;;;;;1999.90;999.90;;;31.30;61.10;;;;;;5112712;27;20039;-78
2022/07/20 10:19:05;;;;;;;1999.90;999.90;;;31.10;59.40;;;;;;5105612;27;20471;-77
2022/07/20 10:21:37;;;;;;;1999.90;999.90;;;31.00;59.60;;;;;;5094506;28;20070;-79
2022/07/20 10:24:16;;;;;;;1999.90;999.90;;;30.90;58.80;;;;;;5088736;27;20050;-77
2022/07/20 10:26:43;;;;;;;1999.90;999.90;;;30.70;59.50;;;;;;5086508;27;20549;-78
2022/07/20 10:29:09;;;;;;;1999.90;999.90;;;30.80;59.80;;;;;;5116475;28;20499;-78
2022/07/20 10:31:49;;;;;;;1999.90;999.90;;;30.90;59.30;;;;;;5105833;27;20062;-78
2022/07/20 10:34:37;;;;;;;1999.90;999.90;;;31.00;59.60;;;;;;5102331;27;20031;-78
2022/07/20 10:37:22;;;;;;;1999.90;999.90;;;31.20;59.70;;;;;;5114352;27;20042;-77
2022/07/20 10:39:47;;;;;;;1999.90;999.90;;;31.50;59.00;;;;;;5111320;27;20062;-75
2022/07/20 10:42:37;;;;;;;1999.90;999.90;;;31.50;57.30;;;;;;5099790;27;20053;-78
2022/07/20 10:45:23;;;;;;;1999.90;999.90;;;31.50;57.90;;;;;;5100233;27;20130;-78
2022/07/20 10:47:48;;;;;;;1999.90;999.90;;;31.40;57.00;;;;;;5102717;27;20085;-78
2022/07/20 10:50:24;;;;;;;1999.90;999.90;;;31.30;58.20;;;;;;5100729;27;20121;-77
2022/07/20 10:52:53;;;;;;;1999.90;999.90;;;31.40;58.30;;;;;;5111648;27;20042;-77
2022/07/20 10:55:34;;;;;;;1999.90;999.90;;;31.40;58.20;;;;;;5121436;27;20038;-77
2022/07/20 10:58:10;;;;;;;1999.90;999.90;;;31.40;58.50;;;;;;5094482;27;20043;-78
2022/07/20 11:00:36;;;;;;;1999.90;999.90;;;31.50;58.40;;;;;;5109693;27;20084;-77
2022/07/20 11:03:03;;;;;;;1999.90;999.90;;;31.40;59.20;;;;;;5092156;27;20673;-77
2022/07/20 11:05:29;;;;;;;1999.90;999.90;;;31.60;58.70;;;;;;5086486;27;20038;-77
2022/07/20 11:07:55;;;;;;;1999.90;999.90;;;31.60;57.00;;;;;;5118199;27;20031;-78
2022/07/20 11:10:25;;;;;;;1999.90;999.90;;;31.40;57.70;;;;;;5096811;27;20509;-78
2022/07/20 11:12:58;;;;;;;1999.90;999.90;;;31.20;58.10;;;;;;5091937;27;20043;-78
2022/07/20 11:15:37;;;;;;;1999.90;999.90;;;31.30;58.20;;;;;;5086678;27;20039;-78
2022/07/20 11:18:05;;;;;;;1999.90;999.90;;;31.30;57.20;;;;;;5122260;27;20462;-79
2022/07/20 11:20:30;;;;;;;1999.90;999.90;;;31.20;56.70;;;;;;5087908;27;20225;-77
2022/07/20 11:22:57;;;;;;;1999.90;999.90;;;31.10;58.20;;;;;;5108641;27;20475;-78
2022/07/20 11:25:24;;;;;;;1999.90;999.90;;;31.10;57.50;;;;;;5088957;27;20050;-77
2022/07/20 11:28:00;;;;;;;1999.90;999.90;;;31.10;58.30;;;;;;5109915;27;20358;-77
2022/07/20 11:30:34;;;;;;;1999.90;999.90;;;31.20;57.10;;;;;;5088969;27;20031;-77
2022/07/20 11:33:00;;;;;;;1999.90;999.90;;;31.30;59.40;;;;;;5090902;27;20834;-77
2022/07/20 11:35:26;;;;;;;1999.90;999.90;;;31.30;55.70;;;;;;5106052;27;20050;-77
2022/07/20 11:37:53;;;;;;;1999.90;999.90;;;31.30;56.70;;;;;;5108933;27;20117;-76
2022/07/20 11:40:19;;;;;;;1999.90;999.90;;;31.40;57.70;;;;;;5089800;27;20059;-77
2022/07/20 11:43:11;;;;;;;1999.90;999.90;;;31.50;56.90;;;;;;5106516;27;20034;-74
2022/07/20 11:45:38;;;;;;;1999.90;999.90;;;31.50;55.80;;;;;;5086917;27;20035;-73
2022/07/20 11:48:26;;;;;;;1999.90;999.90;;;31.50;56.90;;;;;;5090158;27;20796;-74
2022/07/20 11:50:52;;;;;;;1999.90;999.90;;;31.40;55.70;;;;;;5095779;27;20088;-77
2022/07/20 11:53:29;;;;;;;1999.90;999.90;;;31.30;56.20;;;;;;5105427;27;20043;-78
2022/07/20 11:55:57;;;;;;;1999.90;999.90;;;31.20;55.80;;;;;;5121471;27;20122;-77
2022/07/20 11:58:33;;;;;;;1999.90;999.90;;;31.10;56.60;;;;;;5095817;27;20904;-77
2022/07/20 12:01:03;;;;;;;1999.90;999.90;;;30.90;55.80;;;;;;5108824;27;20068;-77
2022/07/20 12:03:35;;;;;;;1999.90;999.90;;;31.00;56.20;;;;;;5103991;27;20515;-77